Time;durP1;ratioP1;P1;durP2;ratioP2;P2;SDS_P1;SDS_P2;PMS_P1;PMS_P2;Temp;Humidity;BMP_temperature;BMP_pressure;BME280_temperature;BME280_humidity;BME280_pressure;Samples;Min_cycle;Max_cycle;Signal;HPM_P1;HPM_P2
2023/12/16 00:00:51;;;;;;;0.80;0.80;;;5.20;99.90;;;;;;5056888;28;20216;-85
2023/12/16 00:03:17;;;;;;;0.70;0.70;;;5.20;99.90;;;;;;5029015;28;20567;-82
2023/12/16 00:05:42;;;;;;;0.80;0.80;;;5.20;99.90;;;;;;5049223;28;20192;-82
2023/12/16 00:08:08;;;;;;;0.73;0.73;;;5.20;99.90;;;;;;5053491;28;20183;-84
2023/12/16 00:10:33;;;;;;;0.80;0.80;;;5.30;99.90;;;;;;5047357;28;20202;-84
2023/12/16 00:12:59;;;;;;;0.80;0.80;;;5.40;99.90;;;;;;5030108;28;20180;-84
2023/12/16 00:15:25;;;;;;;0.80;0.80;;;5.40;99.90;;;;;;5047936;28;20290;-83
2023/12/16 00:17:50;;;;;;;0.80;0.80;;;5.40;99.90;;;;;;5048334;28;20310;-85
2023/12/16 00:20:16;;;;;;;0.77;0.77;;;5.30;99.90;;;;;;5047380;28;20208;-84
2023/12/16 00:22:42;;;;;;;0.80;0.80;;;5.30;99.90;;;;;;5044353;28;20654;-84
2023/12/16 00:25:08;;;;;;;0.60;0.60;;;5.30;99.90;;;;;;5045945;28;20187;-84
2023/12/16 00:27:33;;;;;;;0.80;0.80;;;5.30;99.90;;;;;;5042986;28;20192;-84
2023/12/16 00:29:59;;;;;;;0.70;0.70;;;5.30;99.90;;;;;;5042510;28;20235;-85
2023/12/16 00:32:25;;;;;;;0.70;0.70;;;5.30;99.90;;;;;;5042214;28;20167;-82
2023/12/16 00:34:50;;;;;;;0.77;0.77;;;5.30;99.90;;;;;;5043155;28;20187;-85
2023/12/16 00:37:16;;;;;;;0.67;0.67;;;5.30;99.90;;;;;;5039760;28;20192;-85
2023/12/16 00:39:41;;;;;;;0.73;0.73;;;5.20;99.90;;;;;;5022760;28;20247;-84
2023/12/16 00:42:07;;;;;;;0.80;0.80;;;5.20;99.90;;;;;;5037466;28;20296;-84
2023/12/16 00:44:33;;;;;;;0.80;0.80;;;5.20;99.90;;;;;;5040657;28;20229;-85
2023/12/16 00:47:00;;;;;;;0.70;0.70;;;5.30;99.90;;;;;;5020548;28;20192;-84
2023/12/16 00:49:25;;;;;;;0.80;0.80;;;5.30;99.90;;;;;;5041070;28;20172;-85
2023/12/16 00:51:51;;;;;;;0.80;0.80;;;5.30;99.90;;;;;;5045844;28;20637;-83
2023/12/16 00:54:17;;;;;;;0.70;0.70;;;5.30;99.90;;;;;;5039524;28;20218;-84
2023/12/16 00:56:42;;;;;;;0.70;0.70;;;5.30;99.90;;;;;;5038455;28;20200;-84
2023/12/16 00:59:09;;;;;;;0.80;0.80;;;5.30;99.90;;;;;;5038623;28;20171;-84
2023/12/16 01:01:34;;;;;;;0.77;0.77;;;5.30;99.90;;;;;;5038060;28;20207;-84
2023/12/16 01:04:00;;;;;;;0.70;0.70;;;5.20;99.90;;;;;;5039008;28;20526;-84
2023/12/16 01:06:26;;;;;;;0.80;0.80;;;5.30;99.90;;;;;;5038544;28;20195;-85
2023/12/16 01:08:52;;;;;;;0.70;0.70;;;5.30;99.90;;;;;;5038555;28;20175;-85
2023/12/16 01:11:17;;;;;;;0.80;0.80;;;5.30;99.90;;;;;;5020780;28;20180;-84
2023/12/16 01:13:43;;;;;;;0.80;0.80;;;5.30;99.90;;;;;;5038676;28;20176;-84
2023/12/16 01:16:08;;;;;;;0.70;0.70;;;5.30;99.90;;;;;;5038518;28;20282;-84
2023/12/16 01:18:34;;;;;;;0.80;0.80;;;5.30;99.90;;;;;;5042574;28;20172;-84
2023/12/16 01:21:04;;;;;;;0.80;0.80;;;5.30;99.90;;;;;;5052491;28;20216;-82
2023/12/16 01:23:30;;;;;;;0.87;0.87;;;5.60;99.90;;;;;;5052171;28;20255;-83
2023/12/16 01:25:55;;;;;;;0.70;0.70;;;5.30;99.90;;;;;;5052031;28;20303;-82
2023/12/16 01:28:21;;;;;;;0.70;0.70;;;5.30;99.90;;;;;;5033439;28;20180;-85
2023/12/16 01:30:46;;;;;;;0.80;0.80;;;5.20;99.90;;;;;;5026727;28;20302;-85
2023/12/16 01:33:12;;;;;;;0.70;0.70;;;5.20;99.90;;;;;;5041090;28;20176;-85
2023/12/16 01:35:38;;;;;;;0.77;0.77;;;5.20;99.90;;;;;;5037722;28;20681;-84
2023/12/16 01:38:03;;;;;;;0.80;0.80;;;5.20;99.90;;;;;;5038753;28;20208;-83
2023/12/16 01:40:29;;;;;;;0.80;0.80;;;5.10;99.90;;;;;;5039290;28;20207;-84
2023/12/16 01:42:55;;;;;;;0.77;0.77;;;5.10;99.90;;;;;;5038806;28;20180;-85
2023/12/16 01:45:21;;;;;;;0.80;0.80;;;5.10;99.90;;;;;;5039671;28;20172;-85
2023/12/16 01:47:47;;;;;;;0.70;0.70;;;5.10;99.90;;;;;;5040254;28;20179;-85
2023/12/16 01:50:13;;;;;;;0.80;0.80;;;5.20;99.90;;;;;;5041358;28;20262;-85
2023/12/16 01:52:41;;;;;;;0.80;0.80;;;5.20;99.90;;;;;;5045454;28;20191;-84
2023/12/16 01:55:09;;;;;;;0.80;0.80;;;5.20;99.90;;;;;;5022637;28;20172;-85
2023/12/16 01:57:35;;;;;;;0.70;0.70;;;5.10;99.90;;;;;;5040611;28;20203;-85
2023/12/16 02:00:03;;;;;;;0.80;0.80;;;5.10;99.90;;;;;;5040528;28;20196;-85
2023/12/16 02:02:28;;;;;;;0.80;0.80;;;5.10;99.90;;;;;;5040803;28;20182;-85
2023/12/16 02:04:54;;;;;;;0.70;0.70;;;5.10;99.90;;;;;;5040246;28;20176;-85
2023/12/16 02:07:20;;;;;;;0.70;0.70;;;5.20;99.90;;;;;;5039868;28;20195;-84
2023/12/16 02:09:47;;;;;;;0.80;0.80;;;5.20;99.90;;;;;;5044513;28;20171;-83
2023/12/16 02:12:13;;;;;;;0.70;0.70;;;5.20;99.90;;;;;;5051286;28;20186;-85
2023/12/16 02:14:39;;;;;;;0.77;0.77;;;5.20;99.90;;;;;;5056093;28;20176;-83
2023/12/16 02:17:04;;;;;;;0.70;0.70;;;5.20;99.90;;;;;;5055849;28;20187;-83
2023/12/16 02:19:31;;;;;;;0.80;0.80;;;5.20;99.90;;;;;;5056453;28;20175;-83
2023/12/16 02:21:56;;;;;;;0.70;0.70;;;5.30;99.90;;;;;;5050292;28;20220;-85
2023/12/16 02:24:22;;;;;;;0.80;0.80;;;5.20;99.90;;;;;;5042471;28;20183;-84
2023/12/16 02:26:48;;;;;;;0.80;0.80;;;5.20;99.90;;;;;;5040890;28;20711;-85
2023/12/16 02:29:13;;;;;;;0.70;0.70;;;5.20;99.90;;;;;;5040907;28;20238;-84
2023/12/16 02:31:39;;;;;;;0.70;0.70;;;5.20;99.90;;;;;;5043463;28;20172;-83
2023/12/16 02:34:05;;;;;;;0.77;0.77;;;5.20;99.90;;;;;;5038867;28;20180;-83
2023/12/16 02:36:31;;;;;;;0.80;0.80;;;5.20;99.90;;;;;;5036031;28;20212;-84
2023/12/16 02:38:56;;;;;;;0.70;0.70;;;5.20;99.90;;;;;;5034548;28;20222;-84
2023/12/16 02:41:23;;;;;;;0.73;0.73;;;5.20;99.90;;;;;;5034740;28;20199;-84
2023/12/16 02:43:49;;;;;;;0.70;0.70;;;5.20;99.90;;;;;;5034583;28;20255;-82
2023/12/16 02:46:14;;;;;;;0.70;0.70;;;5.10;99.90;;;;;;5034521;28;20669;-82
2023/12/16 02:48:40;;;;;;;0.73;0.73;;;5.20;99.90;;;;;;5016751;28;20735;-82
2023/12/16 02:51:05;;;;;;;0.70;0.70;;;5.10;99.90;;;;;;5036452;28;20223;-83
2023/12/16 02:53:31;;;;;;;0.70;0.70;;;5.20;99.90;;;;;;5056825;28;20176;-80
2023/12/16 02:55:56;;;;;;;0.80;0.80;;;5.20;99.90;;;;;;5050115;28;20588;-82
2023/12/16 02:58:22;;;;;;;0.70;0.70;;;5.10;99.90;;;;;;5039805;28;20218;-83
2023/12/16 03:00:47;;;;;;;0.70;0.70;;;5.10;99.90;;;;;;5038948;28;20215;-83
2023/12/16 03:03:13;;;;;;;0.70;0.70;;;5.00;99.90;;;;;;5038786;28;20172;-85
2023/12/16 03:05:38;;;;;;;0.70;0.70;;;4.90;99.90;;;;;;5038389;28;20200;-82
2023/12/16 03:08:04;;;;;;;0.80;0.80;;;4.80;99.90;;;;;;5039241;28;20208;-85
2023/12/16 03:10:30;;;;;;;0.80;0.80;;;4.80;99.90;;;;;;5039253;28;20175;-83
2023/12/16 03:12:56;;;;;;;0.77;0.77;;;4.70;99.90;;;;;;5040142;28;20167;-82
2023/12/16 03:15:21;;;;;;;0.70;0.70;;;4.70;99.90;;;;;;5038538;28;20233;-82
2023/12/16 03:17:47;;;;;;;0.80;0.80;;;4.70;99.90;;;;;;5039712;28;20218;-82
2023/12/16 03:20:12;;;;;;;0.80;0.80;;;4.70;99.90;;;;;;5040347;28;20175;-83
2023/12/16 03:22:38;;;;;;;0.70;0.70;;;4.60;99.90;;;;;;5044870;28;20241;-84
2023/12/16 03:25:04;;;;;;;0.70;0.70;;;4.60;99.90;;;;;;5040347;28;20191;-83
2023/12/16 03:27:30;;;;;;;0.67;0.67;;;4.60;99.90;;;;;;5039146;28;20200;-83
2023/12/16 03:29:56;;;;;;;0.80;0.80;;;4.60;99.90;;;;;;5040220;28;20187;-83
2023/12/16 03:32:21;;;;;;;0.80;0.80;;;4.50;99.90;;;;;;5038596;28;20199;-84
2023/12/16 03:34:47;;;;;;;0.80;0.80;;;4.40;99.90;;;;;;5022565;28;20179;-82
2023/12/16 03:37:14;;;;;;;0.87;0.87;;;4.40;99.90;;;;;;5040161;28;20208;-84
2023/12/16 03:39:40;;;;;;;1.10;1.10;;;4.20;99.90;;;;;;5039387;28;20512;-83
2023/12/16 03:42:06;;;;;;;1.27;1.20;;;4.10;99.90;;;;;;5039074;28;20207;-83
2023/12/16 03:44:33;;;;;;;1.00;1.00;;;4.00;99.90;;;;;;5039550;28;20172;-83
2023/12/16 03:46:58;;;;;;;1.00;1.00;;;3.80;99.90;;;;;;5049057;28;20176;-83
2023/12/16 03:49:24;;;;;;;0.80;0.80;;;3.70;99.90;;;;;;5049068;28;20175;-83
2023/12/16 03:51:49;;;;;;;1.00;1.00;;;3.60;99.90;;;;;;5047898;28;20266;-82
2023/12/16 03:54:15;;;;;;;0.80;0.80;;;3.60;99.90;;;;;;5033864;28;20657;-83
2023/12/16 03:56:40;;;;;;;0.80;0.80;;;3.50;99.90;;;;;;5040544;28;20799;-83
2023/12/16 03:59:06;;;;;;;0.80;0.80;;;3.50;99.90;;;;;;5032737;28;20544;-83
2023/12/16 04:01:31;;;;;;;0.90;0.90;;;3.50;99.90;;;;;;5033097;28;20216;-83
2023/12/16 04:03:57;;;;;;;0.80;0.80;;;3.40;99.90;;;;;;5033302;28;20176;-82
2023/12/16 04:06:24;;;;;;;0.80;0.80;;;3.40;99.90;;;;;;5046721;28;20207;-84
2023/12/16 04:08:50;;;;;;;0.70;0.70;;;3.40;99.90;;;;;;5043936;28;20179;-83
2023/12/16 04:11:16;;;;;;;0.73;0.73;;;3.40;99.90;;;;;;5039135;28;20184;-84
2023/12/16 04:13:41;;;;;;;0.80;0.80;;;3.40;99.90;;;;;;5037193;28;20179;-85
2023/12/16 04:16:07;;;;;;;0.80;0.80;;;3.50;99.90;;;;;;5041338;28;20595;-82
2023/12/16 04:18:33;;;;;;;0.80;0.80;;;3.60;99.90;;;;;;5043402;28;20226;-81
2023/12/16 04:20:59;;;;;;;0.70;0.70;;;3.70;99.90;;;;;;5055766;28;20237;-81
2023/12/16 04:23:25;;;;;;;0.80;0.80;;;3.70;99.90;;;;;;5056981;28;20152;-81
2023/12/16 04:25:50;;;;;;;0.70;0.70;;;3.70;99.90;;;;;;5050368;28;20196;-82
2023/12/16 04:28:16;;;;;;;0.80;0.80;;;3.70;99.90;;;;;;5039172;28;20191;-82
2023/12/16 04:30:42;;;;;;;0.80;0.80;;;3.80;99.90;;;;;;5021355;28;20176;-82
2023/12/16 04:33:07;;;;;;;0.70;0.70;;;3.70;99.90;;;;;;5040158;28;20653;-85
2023/12/16 04:35:33;;;;;;;0.70;0.70;;;3.70;99.90;;;;;;5037452;28;20266;-82
2023/12/16 04:37:58;;;;;;;0.80;0.80;;;3.80;99.90;;;;;;5038673;28;20645;-84
2023/12/16 04:40:24;;;;;;;0.80;0.80;;;3.80;99.90;;;;;;5037239;28;20210;-82
2023/12/16 04:42:49;;;;;;;0.70;0.70;;;3.90;99.90;;;;;;5037650;28;20584;-81
2023/12/16 04:45:15;;;;;;;0.80;0.80;;;3.90;99.90;;;;;;5038343;28;20172;-84
2023/12/16 04:47:40;;;;;;;0.77;0.77;;;3.80;99.90;;;;;;5040242;28;20190;-85
2023/12/16 04:50:06;;;;;;;0.70;0.70;;;3.80;99.90;;;;;;5042471;28;20267;-81
2023/12/16 04:52:32;;;;;;;0.70;0.70;;;3.90;99.90;;;;;;5034836;28;20673;-82
2023/12/16 04:54:58;;;;;;;0.80;0.80;;;3.90;99.90;;;;;;5036060;28;20179;-83
2023/12/16 04:57:23;;;;;;;0.80;0.80;;;4.00;99.90;;;;;;5035678;28;20188;-85
2023/12/16 04:59:49;;;;;;;0.80;0.80;;;4.00;99.90;;;;;;5037362;28;20590;-84
2023/12/16 05:02:14;;;;;;;0.80;0.80;;;4.00;99.90;;;;;;5038163;28;20211;-82
2023/12/16 05:04:40;;;;;;;0.70;0.70;;;4.10;99.90;;;;;;5037926;28;20343;-84
2023/12/16 05:07:05;;;;;;;0.70;0.70;;;4.30;99.90;;;;;;5037406;28;20219;-83
2023/12/16 05:09:31;;;;;;;0.80;0.80;;;4.20;99.90;;;;;;5020344;28;20191;-83
2023/12/16 05:11:56;;;;;;;0.80;0.80;;;4.20;99.90;;;;;;5038318;28;20241;-83
2023/12/16 05:14:22;;;;;;;0.73;0.73;;;4.20;99.90;;;;;;5033887;28;20181;-81
2023/12/16 05:16:48;;;;;;;0.73;0.73;;;4.10;99.90;;;;;;5021312;28;20207;-82
2023/12/16 05:19:14;;;;;;;0.80;0.80;;;4.10;99.90;;;;;;5018567;28;20184;-83
2023/12/16 05:21:39;;;;;;;0.80;0.80;;;4.00;99.90;;;;;;5000391;28;20299;-83
2023/12/16 05:24:05;;;;;;;0.80;0.80;;;4.10;99.90;;;;;;5019659;28;20199;-84
2023/12/16 05:26:31;;;;;;;0.70;0.70;;;4.10;99.90;;;;;;5026948;28;20199;-83
2023/12/16 05:28:57;;;;;;;0.77;0.77;;;4.00;99.90;;;;;;5017041;28;20172;-82
2023/12/16 05:31:22;;;;;;;0.80;0.80;;;3.90;99.90;;;;;;5038899;28;20180;-83
2023/12/16 05:33:48;;;;;;;0.80;0.80;;;3.90;99.90;;;;;;5046091;28;20164;-79
2023/12/16 05:36:14;;;;;;;0.73;0.73;;;4.00;99.90;;;;;;5058390;28;20196;-83
2023/12/16 05:38:39;;;;;;;0.80;0.80;;;4.00;99.90;;;;;;5041849;28;20191;-84
2023/12/16 05:41:06;;;;;;;0.70;0.70;;;3.90;99.90;;;;;;5040949;28;20208;-83
2023/12/16 05:43:32;;;;;;;0.80;0.80;;;4.00;99.90;;;;;;5028286;28;20550;-83
2023/12/16 05:45:57;;;;;;;0.70;0.70;;;4.00;99.90;;;;;;5040077;28;20219;-83
2023/12/16 05:48:23;;;;;;;0.80;0.80;;;4.10;99.90;;;;;;5040413;28;20180;-83
2023/12/16 05:50:49;;;;;;;0.80;0.80;;;4.10;99.90;;;;;;5039383;28;20172;-82
2023/12/16 05:53:14;;;;;;;0.80;0.80;;;4.10;99.90;;;;;;5039021;28;20179;-81
2023/12/16 05:55:40;;;;;;;0.70;0.70;;;4.00;99.90;;;;;;5038444;28;20571;-84
2023/12/16 05:58:06;;;;;;;0.80;0.80;;;4.00;99.90;;;;;;5021158;28;20707;-83
2023/12/16 06:00:32;;;;;;;0.70;0.70;;;4.00;99.90;;;;;;5020856;28;20234;-83
2023/12/16 06:02:57;;;;;;;0.80;0.80;;;4.00;99.90;;;;;;5039163;28;20172;-83
2023/12/16 06:05:23;;;;;;;0.70;0.70;;;4.10;99.90;;;;;;5037734;28;20207;-83
2023/12/16 06:07:48;;;;;;;0.80;0.80;;;4.10;99.90;;;;;;5039186;28;20172;-82
2023/12/16 06:10:14;;;;;;;0.70;0.70;;;4.10;99.90;;;;;;5038645;28;20314;-82
2023/12/16 06:12:40;;;;;;;0.70;0.70;;;4.10;99.90;;;;;;5041939;28;20183;-80
2023/12/16 06:15:06;;;;;;;0.70;0.70;;;4.00;99.90;;;;;;5042533;28;20176;-83
2023/12/16 06:17:32;;;;;;;0.70;0.70;;;4.00;99.90;;;;;;5021298;28;20196;-83
2023/12/16 06:19:57;;;;;;;0.70;0.70;;;4.00;99.90;;;;;;5039639;28;20225;-82
2023/12/16 06:22:24;;;;;;;0.80;0.80;;;4.00;99.90;;;;;;5021622;28;20203;-83
2023/12/16 06:24:49;;;;;;;0.73;0.73;;;4.00;99.90;;;;;;5040045;28;20497;-83
2023/12/16 06:27:15;;;;;;;0.80;0.80;;;4.10;99.90;;;;;;5039950;28;20196;-83
2023/12/16 06:29:41;;;;;;;0.80;0.80;;;4.10;99.90;;;;;;5039540;28;20179;-82
2023/12/16 06:32:07;;;;;;;0.80;0.80;;;4.10;99.90;;;;;;5039310;28;20182;-82
2023/12/16 06:34:33;;;;;;;0.80;0.80;;;4.00;99.90;;;;;;5039899;28;20722;-83
2023/12/16 06:36:58;;;;;;;0.70;0.70;;;4.00;99.90;;;;;;5039958;28;20222;-83
2023/12/16 06:39:24;;;;;;;0.80;0.80;;;4.00;99.90;;;;;;5039857;28;20179;-83
2023/12/16 06:41:50;;;;;;;0.70;0.70;;;4.00;99.90;;;;;;5040476;28;20275;-83
2023/12/16 06:44:15;;;;;;;0.80;0.80;;;4.10;99.90;;;;;;5047184;28;20236;-83
2023/12/16 06:46:41;;;;;;;0.80;0.80;;;4.10;99.90;;;;;;5046217;28;20230;-81
2023/12/16 06:49:06;;;;;;;0.70;0.70;;;4.00;99.90;;;;;;5049109;28;20180;-82
2023/12/16 06:51:32;;;;;;;0.70;0.70;;;4.00;99.90;;;;;;5038869;28;20168;-80
2023/12/16 06:53:57;;;;;;;0.70;0.70;;;4.00;99.90;;;;;;5056297;28;20543;-80
2023/12/16 06:56:23;;;;;;;0.70;0.70;;;4.10;99.90;;;;;;5055370;28;20575;-80
2023/12/16 06:58:49;;;;;;;0.80;0.80;;;4.10;99.90;;;;;;5055339;28;20237;-80
2023/12/16 07:01:15;;;;;;;0.80;0.80;;;4.10;99.90;;;;;;5046299;28;20221;-81
2023/12/16 07:03:40;;;;;;;0.80;0.80;;;4.10;99.90;;;;;;5037797;28;20179;-83
2023/12/16 07:06:08;;;;;;;0.87;0.87;;;4.10;99.90;;;;;;5036523;28;20206;-82
2023/12/16 07:08:36;;;;;;;0.70;0.70;;;4.10;99.90;;;;;;5036705;28;20184;-82
2023/12/16 07:11:03;;;;;;;0.70;0.70;;;4.10;99.90;;;;;;5037000;28;20180;-82
2023/12/16 07:13:29;;;;;;;0.70;0.70;;;4.10;99.90;;;;;;5037595;28;20619;-81
2023/12/16 07:15:55;;;;;;;0.70;0.70;;;4.10;99.90;;;;;;5037501;28;20226;-82
2023/12/16 07:18:21;;;;;;;0.70;0.70;;;4.10;99.90;;;;;;5020509;28;20263;-82
2023/12/16 07:20:46;;;;;;;0.80;0.80;;;4.10;99.90;;;;;;5020490;28;20634;-83
2023/12/16 07:23:12;;;;;;;0.70;0.70;;;4.20;99.90;;;;;;5039264;28;20640;-83
2023/12/16 07:25:38;;;;;;;0.70;0.70;;;4.20;99.90;;;;;;5039090;28;20215;-82
2023/12/16 07:28:04;;;;;;;0.70;0.70;;;4.20;99.90;;;;;;5039333;28;20270;-82
2023/12/16 07:30:29;;;;;;;0.70;0.70;;;4.20;99.90;;;;;;5038589;28;20180;-81
2023/12/16 07:32:55;;;;;;;0.83;0.83;;;4.20;99.90;;;;;;5038638;28;20180;-82
2023/12/16 07:35:20;;;;;;;0.77;0.77;;;4.10;99.90;;;;;;5038783;28;20203;-83
2023/12/16 07:37:46;;;;;;;0.80;0.80;;;4.20;99.90;;;;;;5038742;28;20669;-83
2023/12/16 07:40:12;;;;;;;0.70;0.70;;;4.20;99.90;;;;;;5038730;28;20172;-82
2023/12/16 07:42:38;;;;;;;0.80;0.80;;;4.20;99.90;;;;;;5039059;28;20294;-83
2023/12/16 07:45:04;;;;;;;0.90;0.90;;;4.20;99.90;;;;;;5043258;28;20179;-83
2023/12/16 07:47:31;;;;;;;0.70;0.70;;;4.30;99.90;;;;;;5029419;28;20259;-86
2023/12/16 07:49:57;;;;;;;0.80;0.80;;;4.40;99.90;;;;;;5044691;28;20184;-85
2023/12/16 07:52:23;;;;;;;0.70;0.70;;;4.60;99.90;;;;;;5056278;28;20205;-85
2023/12/16 07:54:53;;;;;;;0.80;0.80;;;4.60;99.90;;;;;;5035527;28;20183;-82
2023/12/16 07:57:28;;;;;;;0.70;0.70;;;4.60;99.90;;;;;;5029390;28;20187;-81
2023/12/16 07:59:54;;;;;;;0.73;0.73;;;4.50;99.90;;;;;;5103850;23;20249;-85
2023/12/16 08:02:19;;;;;;;0.70;0.70;;;4.60;99.90;;;;;;5052697;28;20275;-85
2023/12/16 08:04:45;;;;;;;0.70;0.70;;;4.60;99.90;;;;;;5048390;28;20183;-85
2023/12/16 08:07:11;;;;;;;0.70;0.70;;;4.50;99.90;;;;;;5042297;28;20195;-85
2023/12/16 08:09:37;;;;;;;0.80;0.80;;;4.60;99.90;;;;;;5053215;28;20179;-82
2023/12/16 08:12:03;;;;;;;0.70;0.70;;;4.50;99.90;;;;;;5040162;28;20180;-85
2023/12/16 08:14:29;;;;;;;0.80;0.80;;;4.60;99.90;;;;;;5038214;28;20180;-84
2023/12/16 08:16:55;;;;;;;0.80;0.80;;;4.60;99.90;;;;;;5041460;28;20210;-84
2023/12/16 08:19:51;;;;;;;0.70;0.70;;;4.60;99.90;;;;;;5050682;28;20156;-82
2023/12/16 08:22:29;;;;;;;0.70;0.70;;;4.50;99.90;;;;;;5047793;28;20233;-84
2023/12/16 08:24:55;;;;;;;0.70;0.70;;;4.50;99.90;;;;;;5043487;28;20179;-84
2023/12/16 08:27:20;;;;;;;0.70;0.70;;;4.60;99.90;;;;;;5040176;28;20557;-83
2023/12/16 08:29:46;;;;;;;0.80;0.80;;;4.50;99.90;;;;;;5043498;28;20545;-84
2023/12/16 08:32:13;;;;;;;0.80;0.80;;;4.50;99.90;;;;;;5046765;28;20216;-83
2023/12/16 08:34:39;;;;;;;0.80;0.80;;;4.50;99.90;;;;;;5046336;28;20176;-84
2023/12/16 08:37:04;;;;;;;0.80;0.80;;;4.60;99.90;;;;;;5027024;28;20211;-83
2023/12/16 08:39:30;;;;;;;0.80;0.80;;;4.50;99.90;;;;;;5021884;28;20244;-83
2023/12/16 08:41:55;;;;;;;0.80;0.80;;;4.50;99.90;;;;;;5020964;28;20280;-84
2023/12/16 08:44:26;;;;;;;0.80;0.80;;;4.60;99.90;;;;;;5025855;28;20173;-82
2023/12/16 08:46:54;;;;;;;0.70;0.70;;;4.70;99.90;;;;;;5029571;28;20196;-83
2023/12/16 08:49:21;;;;;;;0.70;0.70;;;4.70;99.90;;;;;;5025842;28;20264;-83
2023/12/16 08:51:52;;;;;;;0.70;0.70;;;4.80;99.90;;;;;;5030155;28;20172;-82
2023/12/16 08:54:18;;;;;;;0.70;0.70;;;4.70;99.90;;;;;;5038484;28;20177;-79
2023/12/16 08:56:43;;;;;;;0.80;0.80;;;4.70;99.90;;;;;;5035437;28;20302;-83
2023/12/16 08:59:10;;;;;;;0.80;0.80;;;4.70;99.90;;;;;;5027764;28;20176;-82
2023/12/16 09:01:37;;;;;;;0.70;0.70;;;4.80;99.90;;;;;;5027786;28;20204;-82
2023/12/16 09:04:04;;;;;;;0.80;0.80;;;4.70;99.90;;;;;;5024773;28;20184;-84
2023/12/16 09:06:30;;;;;;;0.70;0.70;;;4.80;99.90;;;;;;5031709;28;20212;-82
2023/12/16 09:09:01;;;;;;;0.70;0.70;;;4.80;99.90;;;;;;5032092;28;20173;-84
2023/12/16 09:11:26;;;;;;;0.80;0.80;;;4.90;99.90;;;;;;5030694;28;20161;-84
2023/12/16 09:13:52;;;;;;;0.80;0.80;;;4.70;99.90;;;;;;5022538;28;20464;-84
2023/12/16 09:16:19;;;;;;;0.80;0.80;;;4.80;99.90;;;;;;5020296;28;20272;-84
2023/12/16 09:18:44;;;;;;;0.70;0.70;;;5.00;99.90;;;;;;5020106;28;20177;-84
2023/12/16 09:21:14;;;;;;;0.70;0.70;;;5.00;99.90;;;;;;5021793;28;20200;-83
2023/12/16 09:23:40;;;;;;;0.80;0.80;;;4.90;99.90;;;;;;5021672;28;20668;-83
2023/12/16 09:26:05;;;;;;;0.70;0.70;;;5.00;99.90;;;;;;5022584;28;20212;-83
2023/12/16 09:28:31;;;;;;;0.73;0.73;;;5.10;99.90;;;;;;5022120;28;20580;-83
2023/12/16 09:30:56;;;;;;;0.80;0.80;;;5.00;99.90;;;;;;5022223;28;20552;-84
2023/12/16 09:33:22;;;;;;;0.80;0.80;;;5.20;99.90;;;;;;5020825;28;20168;-82
2023/12/16 09:35:47;;;;;;;0.80;0.80;;;5.20;99.90;;;;;;5021399;28;20188;-84
2023/12/16 09:38:13;;;;;;;0.80;0.80;;;5.20;99.90;;;;;;5020654;28;20168;-84
2023/12/16 09:40:41;;;;;;;0.70;0.70;;;5.30;99.90;;;;;;5020320;28;20270;-84
2023/12/16 09:43:16;;;;;;;0.70;0.70;;;5.30;99.90;;;;;;5036603;28;20199;-86
2023/12/16 09:45:46;;;;;;;0.80;0.80;;;5.20;99.90;;;;;;5039124;28;20198;-84
2023/12/16 09:48:16;;;;;;;0.73;0.73;;;5.30;99.90;;;;;;5042101;28;20182;-84
2023/12/16 09:50:42;;;;;;;0.80;0.80;;;5.20;99.90;;;;;;5040586;28;20184;-84
2023/12/16 09:53:08;;;;;;;0.70;0.70;;;5.30;99.90;;;;;;5041124;28;20654;-84
2023/12/16 09:55:34;;;;;;;0.70;0.70;;;5.30;99.90;;;;;;5041645;28;20262;-85
2023/12/16 09:58:17;;;;;;;0.70;0.70;;;5.30;99.90;;;;;;5040880;28;20176;-80
2023/12/16 10:00:47;;;;;;;0.70;0.70;;;5.20;99.90;;;;;;5041836;28;20218;-82
2023/12/16 10:03:16;;;;;;;0.80;0.80;;;5.30;99.90;;;;;;5042768;28;20653;-84
2023/12/16 10:05:48;;;;;;;0.80;0.80;;;5.40;99.90;;;;;;5026557;28;20204;-84
2023/12/16 10:08:13;;;;;;;0.80;0.80;;;5.30;99.90;;;;;;5020248;28;20200;-83
2023/12/16 10:10:39;;;;;;;0.80;0.80;;;5.30;99.90;;;;;;5019501;28;20177;-83
2023/12/16 10:13:04;;;;;;;0.80;0.80;;;5.20;99.90;;;;;;5018879;28;20177;-84
2023/12/16 10:15:33;;;;;;;0.80;0.80;;;5.30;99.90;;;;;;5025038;28;20179;-84
2023/12/16 10:18:00;;;;;;;0.70;0.70;;;5.30;99.90;;;;;;5018817;28;20181;-83
2023/12/16 10:20:26;;;;;;;0.77;0.77;;;5.50;99.90;;;;;;5016528;28;20600;-83
2023/12/16 10:22:52;;;;;;;0.80;0.80;;;5.60;99.90;;;;;;5019510;28;20172;-83
2023/12/16 10:25:19;;;;;;;0.80;0.80;;;5.50;99.90;;;;;;5017509;28;20561;-83
2023/12/16 10:27:45;;;;;;;0.70;0.70;;;5.60;99.90;;;;;;5038229;28;20184;-82
2023/12/16 10:30:11;;;;;;;0.70;0.70;;;5.60;99.90;;;;;;5037278;28;20198;-85
2023/12/16 10:32:40;;;;;;;0.70;0.70;;;5.70;93.70;;;;;;5038569;28;20184;-84
2023/12/16 10:35:07;;;;;;;0.70;0.70;;;5.80;91.30;;;;;;5029190;28;20194;-83
2023/12/16 10:37:33;;;;;;;0.70;0.70;;;5.80;26.80;;;;;;5033658;28;20208;-84
2023/12/16 10:39:58;;;;;;;0.70;0.70;;;6.00;42.40;;;;;;5043711;28;20270;-85
2023/12/16 10:42:24;;;;;;;0.80;0.80;;;6.00;26.90;;;;;;5037136;28;20204;-84
2023/12/16 10:44:52;;;;;;;0.77;0.77;;;6.00;53.60;;;;;;5034223;28;20183;-85
2023/12/16 10:47:18;;;;;;;0.80;0.80;;;6.10;16.30;;;;;;5027064;28;20549;-85
2023/12/16 10:49:45;;;;;;;0.80;0.80;;;6.20;28.20;;;;;;5033650;28;20277;-85
2023/12/16 10:52:12;;;;;;;0.70;0.70;;;6.30;1.00;;;;;;5029266;28;20175;-85
2023/12/16 10:54:47;;;;;;;0.80;0.80;;;6.30;1.00;;;;;;5036992;28;20176;-84
2023/12/16 10:57:31;;;;;;;0.70;0.70;;;6.50;1.00;;;;;;5035826;28;20576;-85
2023/12/16 11:00:05;;;;;;;0.73;0.73;;;6.50;1.00;;;;;;5041879;28;20223;-85
2023/12/16 11:02:34;;;;;;;0.70;0.70;;;6.60;1.00;;;;;;5029465;28;20220;-84
2023/12/16 11:05:10;;;;;;;0.70;0.70;;;6.70;1.00;;;;;;5040532;28;20226;-83
2023/12/16 11:07:39;;;;;;;0.70;0.70;;;6.70;1.00;;;;;;5038928;28;20218;-84
2023/12/16 11:10:07;;;;;;;0.70;0.70;;;6.80;1.00;;;;;;5038793;28;20583;-83
2023/12/16 11:12:35;;;;;;;0.70;0.70;;;6.80;1.00;;;;;;5047192;28;20200;-84
2023/12/16 11:15:07;;;;;;;0.77;0.77;;;6.90;1.00;;;;;;5037207;28;20572;-84
2023/12/16 11:17:46;;;;;;;0.70;0.70;;;7.00;1.00;;;;;;5030035;28;20271;-82
2023/12/16 11:20:21;;;;;;;0.60;0.60;;;7.20;1.00;;;;;;5045522;28;20165;-83
2023/12/16 11:22:51;;;;;;;0.60;0.60;;;7.20;1.00;;;;;;5048330;28;20193;-82
2023/12/16 11:25:18;;;;;;;0.60;0.60;;;7.30;1.00;;;;;;5053130;28;20501;-83
2023/12/16 11:27:49;;;;;;;0.67;0.67;;;7.30;1.00;;;;;;5051413;28;20184;-84
2023/12/16 11:30:16;;;;;;;0.70;0.70;;;7.50;1.00;;;;;;5025509;28;20201;-85
2023/12/16 11:32:44;;;;;;;0.63;0.63;;;7.50;1.00;;;;;;5025958;28;20187;-84
2023/12/16 11:35:10;;;;;;;0.60;0.60;;;7.60;1.00;;;;;;5039262;28;20176;-85
2023/12/16 11:37:36;;;;;;;0.70;0.70;;;7.50;1.00;;;;;;5039191;28;20223;-85
2023/12/16 11:40:04;;;;;;;0.67;0.67;;;7.40;1.00;;;;;;5034812;28;20172;-84
2023/12/16 11:42:45;;;;;;;0.67;0.67;;;7.50;1.00;;;;;;5035453;28;20199;-86
2023/12/16 11:45:37;;;;;;;0.60;0.60;;;7.60;1.00;;;;;;5027497;28;20178;-86
2023/12/16 11:48:10;;;;;;;0.60;0.60;;;7.40;1.00;;;;;;5028272;28;20271;-84
2023/12/16 11:50:39;;;;;;;0.70;0.70;;;7.40;1.00;;;;;;5018404;28;20662;-84
2023/12/16 11:53:07;;;;;;;0.60;0.60;;;7.50;1.00;;;;;;5034894;28;20164;-85
2023/12/16 11:55:32;;;;;;;0.70;0.70;;;7.50;1.00;;;;;;5050899;28;20172;-83
2023/12/16 11:57:58;;;;;;;0.70;0.70;;;7.50;1.00;;;;;;5045313;28;20199;-85
2023/12/16 12:00:24;;;;;;;0.70;0.70;;;7.50;1.00;;;;;;5035892;28;20646;-85
2023/12/16 12:02:51;;;;;;;0.67;0.67;;;7.60;1.00;;;;;;5038228;28;20178;-84
2023/12/16 12:05:18;;;;;;;0.60;0.60;;;7.60;1.00;;;;;;5037930;28;20240;-85
2023/12/16 12:07:44;;;;;;;0.60;0.60;;;7.60;1.00;;;;;;5037959;28;20172;-85
2023/12/16 12:10:10;;;;;;;0.60;0.60;;;7.50;1.00;;;;;;5034030;28;20598;-85
2023/12/16 12:12:36;;;;;;;0.70;0.70;;;7.50;1.00;;;;;;5024825;28;20183;-85
2023/12/16 12:15:02;;;;;;;0.70;0.70;;;7.50;1.00;;;;;;5031182;28;20172;-83
2023/12/16 12:17:28;;;;;;;0.60;0.60;;;7.40;1.00;;;;;;5036530;28;20204;-86
2023/12/16 12:19:57;;;;;;;0.70;0.70;;;7.60;1.00;;;;;;5040422;28;20259;-85
2023/12/16 12:22:23;;;;;;;0.60;0.60;;;7.40;1.00;;;;;;5029429;28;20231;-85
2023/12/16 12:24:53;;;;;;;0.70;0.70;;;7.50;1.00;;;;;;5027852;28;20169;-86
2023/12/16 12:27:19;;;;;;;0.73;0.73;;;7.60;1.00;;;;;;5030519;28;20255;-85
2023/12/16 12:30:01;;;;;;;0.67;0.67;;;7.80;1.00;;;;;;5028590;28;20226;-85
2023/12/16 12:32:31;;;;;;;0.80;0.80;;;7.70;1.00;;;;;;5035847;28;20221;-85
2023/12/16 12:35:04;;;;;;;0.60;0.60;;;7.50;1.00;;;;;;5040093;28;20712;-85
2023/12/16 12:37:36;;;;;;;0.60;0.60;;;7.60;1.00;;;;;;5041978;28;20207;-82
2023/12/16 12:40:02;;;;;;;0.60;0.60;;;7.70;1.00;;;;;;5054887;28;20172;-83
2023/12/16 12:42:28;;;;;;;0.70;0.70;;;7.90;1.00;;;;;;5045749;28;20231;-80
2023/12/16 12:44:54;;;;;;;0.73;0.73;;;7.70;1.00;;;;;;5055762;28;20247;-82
2023/12/16 12:47:36;;;;;;;0.60;0.60;;;7.80;1.00;;;;;;5059471;28;20195;-80
2023/12/16 12:50:19;;;;;;;0.60;0.60;;;7.60;1.00;;;;;;5050625;28;20161;-83
2023/12/16 12:52:44;;;;;;;0.60;0.60;;;7.70;1.00;;;;;;5054691;28;20188;-85
2023/12/16 12:55:10;;;;;;;0.60;0.60;;;7.70;1.00;;;;;;5038523;28;20247;-86